Time;durP1;ratioP1;P1;durP2;ratioP2;P2;SDS_P1;SDS_P2;PMS_P1;PMS_P2;Temp;Humidity;BMP_temperature;BMP_pressure;BME280_temperature;BME280_humidity;BME280_pressure;Samples;Min_cycle;Max_cycle;Signal;HPM_P1;HPM_P2
2023/05/29 00:00:09;;;;;;;6.97;2.20;;;10.60;99.90;;;;;;5014273;28;20049;-67
2023/05/29 00:02:35;;;;;;;7.15;2.00;;;10.60;99.90;;;;;;5015587;28;20048;-67
2023/05/29 00:05:05;;;;;;;6.00;1.80;;;10.50;99.90;;;;;;5013877;28;20491;-67
2023/05/29 00:07:32;;;;;;;6.20;2.63;;;10.50;99.90;;;;;;5014319;28;20096;-67
2023/05/29 00:09:58;;;;;;;7.57;2.20;;;10.30;99.90;;;;;;5014150;28;20133;-67
2023/05/29 00:12:25;;;;;;;9.23;2.10;;;10.30;99.90;;;;;;5014949;28;20466;-67
2023/05/29 00:14:50;;;;;;;7.70;2.10;;;10.20;99.90;;;;;;5014046;28;20121;-67
2023/05/29 00:17:16;;;;;;;6.35;1.90;;;10.10;99.90;;;;;;5014074;28;20073;-67
2023/05/29 00:19:43;;;;;;;7.82;2.20;;;10.00;99.90;;;;;;5013989;28;20045;-67
2023/05/29 00:22:08;;;;;;;6.45;1.83;;;10.00;99.90;;;;;;5014576;28;20053;-67
2023/05/29 00:24:34;;;;;;;7.53;1.88;;;10.00;99.90;;;;;;5014757;28;20429;-67
2023/05/29 00:27:01;;;;;;;8.02;2.28;;;10.00;99.90;;;;;;5013545;28;20532;-67
2023/05/29 00:29:27;;;;;;;9.15;2.05;;;9.90;99.90;;;;;;5012918;28;20056;-67
2023/05/29 00:31:53;;;;;;;6.40;2.30;;;9.90;99.90;;;;;;5013895;28;20046;-67
2023/05/29 00:34:20;;;;;;;6.85;1.77;;;9.80;99.90;;;;;;5013764;28;20662;-67
2023/05/29 00:36:46;;;;;;;8.73;2.05;;;9.80;99.90;;;;;;5014365;28;20045;-67
2023/05/29 00:39:12;;;;;;;8.02;2.63;;;9.70;99.90;;;;;;5013817;28;20042;-67
2023/05/29 00:41:38;;;;;;;8.95;2.58;;;9.80;99.90;;;;;;5013800;28;20450;-67
2023/05/29 00:44:05;;;;;;;8.27;2.58;;;9.70;99.90;;;;;;5012545;28;20042;-67
2023/05/29 00:46:32;;;;;;;5.50;2.00;;;9.70;99.90;;;;;;5014234;28;20050;-67
2023/05/29 00:48:59;;;;;;;8.52;2.30;;;9.70;99.90;;;;;;5013616;28;20046;-67
2023/05/29 00:51:27;;;;;;;11.27;2.22;;;9.60;99.90;;;;;;5014495;28;20050;-67
2023/05/29 00:53:53;;;;;;;8.27;2.05;;;9.60;99.90;;;;;;5013652;28;20096;-67
2023/05/29 00:56:20;;;;;;;6.35;2.20;;;9.70;99.90;;;;;;5013634;28;20046;-67
2023/05/29 00:58:50;;;;;;;7.30;2.28;;;9.60;99.90;;;;;;5014148;28;20045;-67
2023/05/29 01:01:21;;;;;;;9.88;2.88;;;9.60;99.90;;;;;;5013696;28;20046;-67
2023/05/29 01:03:48;;;;;;;8.07;1.63;;;9.60;99.90;;;;;;5013590;28;20050;-67
2023/05/29 01:06:15;;;;;;;8.88;2.17;;;9.60;99.90;;;;;;5013530;28;20042;-67
2023/05/29 01:08:40;;;;;;;7.50;2.13;;;9.60;99.90;;;;;;5013455;28;20045;-66
2023/05/29 01:11:50;;;;;;;6.97;1.60;;;9.50;99.90;;;;;;5017438;28;20689;-66
2023/05/29 01:14:53;;;;;;;9.07;2.50;;;9.50;99.90;;;;;;5016434;28;20045;-67
2023/05/29 01:17:42;;;;;;;7.05;1.80;;;9.40;99.90;;;;;;5015949;28;20060;-67
2023/05/29 01:20:35;;;;;;;9.02;2.33;;;9.30;99.90;;;;;;5017622;28;20050;-67
2023/05/29 01:23:20;;;;;;;6.97;2.03;;;9.30;99.90;;;;;;5017247;28;20041;-67
2023/05/29 01:26:01;;;;;;;11.95;2.70;;;9.20;99.90;;;;;;5017176;28;20050;-67
2023/05/29 01:28:47;;;;;;;8.20;1.95;;;9.20;99.90;;;;;;5017109;28;20049;-67
2023/05/29 01:31:14;;;;;;;7.47;2.00;;;9.20;99.90;;;;;;5017663;28;20385;-67
2023/05/29 01:33:42;;;;;;;9.68;2.35;;;9.20;99.90;;;;;;5017017;28;20065;-67
2023/05/29 01:36:09;;;;;;;7.00;2.28;;;9.30;99.90;;;;;;5017212;28;20360;-67
2023/05/29 01:38:35;;;;;;;6.88;2.28;;;9.30;99.90;;;;;;5015928;28;20477;-67
2023/05/29 01:41:01;;;;;;;7.75;1.92;;;9.30;99.90;;;;;;5016893;28;20060;-67
2023/05/29 01:43:28;;;;;;;10.65;1.80;;;9.30;99.90;;;;;;5017365;28;20042;-67
2023/05/29 01:45:53;;;;;;;6.22;1.80;;;9.20;99.90;;;;;;5015568;28;20482;-67
2023/05/29 01:48:19;;;;;;;8.43;1.95;;;9.20;99.90;;;;;;5016459;28;20133;-67
2023/05/29 01:50:47;;;;;;;9.38;1.98;;;9.20;99.90;;;;;;5016629;28;20085;-67
2023/05/29 01:53:13;;;;;;;10.98;1.88;;;9.10;99.90;;;;;;5017154;28;20104;-67
2023/05/29 01:55:38;;;;;;;6.50;2.25;;;9.10;99.90;;;;;;5017157;28;20430;-67
2023/05/29 01:58:06;;;;;;;7.03;1.73;;;9.00;99.90;;;;;;5017110;28;20372;-67
2023/05/29 02:00:32;;;;;;;10.00;2.47;;;9.00;99.90;;;;;;5015348;28;20136;-67
2023/05/29 02:02:58;;;;;;;7.40;2.00;;;8.90;99.90;;;;;;5017220;28;20053;-67
2023/05/29 02:05:23;;;;;;;6.22;1.88;;;8.90;99.90;;;;;;5016377;28;20057;-67
2023/05/29 02:07:49;;;;;;;6.43;1.83;;;8.80;99.90;;;;;;5016591;28;20046;-67
2023/05/29 02:10:15;;;;;;;6.85;2.15;;;8.80;99.90;;;;;;5016311;28;20050;-67
2023/05/29 02:12:41;;;;;;;8.43;2.10;;;8.80;99.90;;;;;;5016836;28;20053;-67
2023/05/29 02:15:07;;;;;;;8.70;2.00;;;8.80;99.90;;;;;;5015974;28;20149;-67
2023/05/29 02:17:33;;;;;;;9.40;2.13;;;8.70;99.90;;;;;;5016196;28;20048;-67
2023/05/29 02:19:59;;;;;;;6.60;1.77;;;8.70;99.90;;;;;;5015626;28;20380;-66
2023/05/29 02:22:25;;;;;;;10.75;2.28;;;8.70;99.90;;;;;;5016407;28;20053;-67
2023/05/29 02:24:50;;;;;;;7.40;1.95;;;8.70;99.90;;;;;;5016084;28;20475;-67
2023/05/29 02:27:16;;;;;;;43.22;7.43;;;8.60;99.90;;;;;;5014810;28;20042;-67
2023/05/29 02:29:42;;;;;;;6.97;1.95;;;8.50;99.90;;;;;;5015991;28;20107;-67
2023/05/29 02:32:07;;;;;;;8.82;2.33;;;8.50;99.90;;;;;;5015932;28;20498;-67
2023/05/29 02:34:33;;;;;;;6.05;1.63;;;8.50;99.90;;;;;;5015852;28;20046;-67
2023/05/29 02:36:59;;;;;;;7.93;2.42;;;8.40;99.90;;;;;;5016358;28;20037;-67
2023/05/29 02:39:24;;;;;;;8.95;1.77;;;8.30;99.90;;;;;;5015182;28;20077;-67
2023/05/29 02:41:50;;;;;;;6.85;1.92;;;8.40;99.90;;;;;;5016344;28;20058;-67
2023/05/29 02:44:16;;;;;;;27.77;5.93;;;8.40;99.90;;;;;;5016139;28;20378;-66
2023/05/29 02:46:41;;;;;;;55.38;11.10;;;8.40;99.90;;;;;;5015497;28;20096;-67
2023/05/29 02:49:07;;;;;;;19.85;3.40;;;8.40;99.90;;;;;;5014613;28;20460;-67
2023/05/29 02:51:33;;;;;;;7.75;1.77;;;8.40;99.90;;;;;;5015793;28;20057;-67
2023/05/29 02:53:58;;;;;;;5.05;2.00;;;8.30;99.90;;;;;;5016071;28;20050;-67
2023/05/29 02:56:24;;;;;;;8.07;1.77;;;8.30;99.90;;;;;;5014538;28;20145;-67
2023/05/29 02:58:53;;;;;;;6.32;1.52;;;8.20;99.90;;;;;;5016213;28;20050;-67
2023/05/29 03:01:18;;;;;;;3.65;1.10;;;8.20;99.90;;;;;;5014708;28;20050;-67
2023/05/29 03:03:44;;;;;;;5.63;1.92;;;8.20;99.90;;;;;;5015581;28;20046;-67
2023/05/29 03:06:12;;;;;;;3.72;1.20;;;8.20;99.90;;;;;;5015231;28;20058;-67
2023/05/29 03:08:41;;;;;;;5.75;1.58;;;8.10;99.90;;;;;;4998146;28;20508;-66
2023/05/29 03:11:13;;;;;;;3.58;1.10;;;8.10;99.90;;;;;;5015248;28;20049;-67
2023/05/29 03:13:39;;;;;;;7.05;1.52;;;8.00;99.90;;;;;;5015134;28;20566;-66
2023/05/29 03:16:04;;;;;;;5.90;1.55;;;7.90;99.90;;;;;;5015663;28;20050;-67
2023/05/29 03:18:30;;;;;;;14.98;2.97;;;7.80;99.90;;;;;;5013888;28;20050;-67
2023/05/29 03:20:56;;;;;;;5.63;1.58;;;7.80;99.90;;;;;;5014852;28;20037;-67
2023/05/29 03:23:22;;;;;;;8.00;1.45;;;7.70;99.90;;;;;;5014636;28;20513;-67
2023/05/29 03:25:48;;;;;;;9.63;2.60;;;7.60;99.90;;;;;;5015571;28;20045;-66
2023/05/29 03:28:13;;;;;;;5.47;1.20;;;7.60;99.90;;;;;;5015774;28;20048;-66
2023/05/29 03:30:39;;;;;;;3.17;1.00;;;7.50;99.90;;;;;;5015549;28;20093;-67
2023/05/29 03:33:05;;;;;;;4.85;1.52;;;7.50;99.90;;;;;;5013761;28;20387;-67
2023/05/29 03:35:31;;;;;;;5.95;1.60;;;7.50;99.90;;;;;;5014898;28;20046;-67
2023/05/29 03:37:57;;;;;;;3.75;1.13;;;7.40;99.90;;;;;;5014826;28;20046;-67
2023/05/29 03:40:22;;;;;;;2.83;1.10;;;7.40;99.90;;;;;;5014731;28;20046;-67
2023/05/29 03:42:48;;;;;;;4.15;1.60;;;7.40;99.90;;;;;;5014276;28;20056;-66
2023/05/29 03:45:14;;;;;;;2.42;1.00;;;7.50;99.90;;;;;;5014235;28;20050;-67
2023/05/29 03:47:40;;;;;;;4.13;1.17;;;7.50;99.90;;;;;;5014354;28;20046;-67
2023/05/29 03:50:06;;;;;;;3.20;1.30;;;7.50;99.90;;;;;;5014631;28;20049;-67
2023/05/29 03:52:32;;;;;;;11.73;1.60;;;7.60;99.90;;;;;;5014351;28;20487;-67
2023/05/29 03:54:58;;;;;;;4.72;1.17;;;7.60;99.90;;;;;;5014444;28;20050;-66
2023/05/29 03:57:23;;;;;;;5.65;1.33;;;7.60;99.90;;;;;;5014681;28;20049;-67
2023/05/29 03:59:49;;;;;;;7.70;1.40;;;7.60;99.90;;;;;;5014337;28;20141;-67
2023/05/29 04:02:15;;;;;;;4.88;1.30;;;7.60;99.90;;;;;;5014617;28;20052;-67
2023/05/29 04:04:40;;;;;;;1.77;0.98;;;7.70;99.90;;;;;;5014198;28;20046;-67
2023/05/29 04:07:06;;;;;;;3.20;0.80;;;7.70;99.90;;;;;;5014177;28;20108;-67
2023/05/29 04:09:33;;;;;;;7.78;1.13;;;7.80;99.90;;;;;;5014161;28;20056;-67
2023/05/29 04:12:02;;;;;;;4.97;1.00;;;7.80;99.90;;;;;;5014695;28;20132;-67
2023/05/29 04:14:28;;;;;;;3.95;1.30;;;7.90;99.90;;;;;;5014101;28;20201;-67
2023/05/29 04:16:53;;;;;;;3.13;1.20;;;8.00;99.90;;;;;;5014110;28;20073;-67
2023/05/29 04:19:20;;;;;;;3.70;1.17;;;8.10;99.90;;;;;;5013968;28;20046;-66
2023/05/29 04:21:47;;;;;;;3.72;1.45;;;8.10;99.90;;;;;;5013978;28;20089;-67
2023/05/29 04:24:16;;;;;;;2.80;1.33;;;8.20;99.90;;;;;;5012790;28;20104;-67
2023/05/29 04:26:42;;;;;;;10.40;1.27;;;8.30;99.90;;;;;;5013889;28;20049;-67
2023/05/29 04:29:12;;;;;;;5.15;1.27;;;8.30;99.90;;;;;;5014025;28;20089;-67
2023/05/29 04:31:38;;;;;;;4.72;1.20;;;8.50;99.90;;;;;;5014834;28;20054;-67
2023/05/29 04:34:07;;;;;;;4.18;1.05;;;8.60;99.90;;;;;;5013912;28;20172;-67
2023/05/29 04:36:33;;;;;;;3.00;1.10;;;8.70;99.90;;;;;;5013840;28;20046;-67
2023/05/29 04:38:59;;;;;;;4.55;0.80;;;8.70;99.90;;;;;;5013147;28;20054;-67
2023/05/29 04:41:29;;;;;;;2.58;0.93;;;8.80;99.90;;;;;;5012707;28;20062;-67
2023/05/29 04:43:58;;;;;;;2.55;0.95;;;8.90;99.90;;;;;;5015027;28;20085;-67
2023/05/29 04:46:24;;;;;;;2.88;0.93;;;9.00;99.90;;;;;;5018346;28;20042;-67
2023/05/29 04:48:53;;;;;;;3.70;1.40;;;9.10;99.90;;;;;;5017890;28;20054;-67
2023/05/29 04:51:22;;;;;;;2.85;1.55;;;9.20;99.90;;;;;;5016588;28;20049;-67
2023/05/29 04:53:51;;;;;;;6.75;1.10;;;9.30;99.90;;;;;;5017726;28;20048;-67
2023/05/29 04:56:18;;;;;;;2.95;1.05;;;9.40;99.90;;;;;;5017752;28;20050;-67
2023/05/29 04:58:44;;;;;;;3.75;0.98;;;9.50;99.90;;;;;;5018256;28;20042;-67
2023/05/29 05:01:14;;;;;;;4.60;1.10;;;9.60;99.90;;;;;;5017729;28;20099;-67
2023/05/29 05:03:40;;;;;;;3.10;0.88;;;9.70;99.90;;;;;;5017860;28;20092;-67
2023/05/29 05:06:07;;;;;;;2.58;0.90;;;9.90;99.90;;;;;;5017198;28;20544;-67
2023/05/29 05:08:33;;;;;;;4.35;1.42;;;10.00;99.90;;;;;;5018065;28;20045;-67
2023/05/29 05:11:00;;;;;;;3.00;1.08;;;10.10;99.90;;;;;;5017763;28;20058;-67
2023/05/29 05:13:26;;;;;;;2.47;1.02;;;10.20;99.90;;;;;;5017339;28;20132;-67
2023/05/29 05:15:52;;;;;;;5.15;1.00;;;10.40;99.90;;;;;;5017376;28;20099;-67
2023/05/29 05:18:18;;;;;;;3.63;0.85;;;10.50;99.90;;;;;;5017331;28;20049;-67
2023/05/29 05:20:45;;;;;;;3.45;1.27;;;10.60;99.90;;;;;;5017794;28;20050;-67
2023/05/29 05:23:11;;;;;;;8.20;1.63;;;10.70;99.90;;;;;;5017725;28;20133;-67
2023/05/29 05:25:38;;;;;;;4.63;1.73;;;10.80;99.90;;;;;;5017201;28;20475;-67
2023/05/29 05:28:04;;;;;;;5.60;1.30;;;10.80;99.90;;;;;;5017049;28;20129;-67
2023/05/29 05:30:30;;;;;;;4.88;1.35;;;10.90;99.90;;;;;;5017079;28;20058;-68
2023/05/29 05:32:57;;;;;;;2.38;1.08;;;11.00;99.90;;;;;;5017495;28;20042;-68
2023/05/29 05:35:22;;;;;;;3.55;0.98;;;11.10;99.90;;;;;;5017001;28;20054;-67
2023/05/29 05:37:48;;;;;;;5.28;1.55;;;11.20;99.90;;;;;;5016960;28;20088;-67
2023/05/29 05:40:14;;;;;;;1.88;0.80;;;11.30;99.90;;;;;;5017005;28;20058;-67
2023/05/29 05:42:40;;;;;;;5.22;1.15;;;11.30;99.90;;;;;;5015884;28;20125;-67
2023/05/29 05:45:06;;;;;;;3.90;1.20;;;11.40;99.90;;;;;;5017111;28;20474;-67
2023/05/29 05:47:32;;;;;;;4.97;1.10;;;11.40;99.90;;;;;;5015226;28;20100;-67
2023/05/29 05:49:58;;;;;;;3.05;0.98;;;11.40;99.90;;;;;;5016565;28;20050;-67
2023/05/29 05:52:25;;;;;;;1.70;0.80;;;11.50;99.90;;;;;;5016698;28;20042;-68
2023/05/29 05:54:51;;;;;;;3.38;1.17;;;11.60;99.90;;;;;;5016511;28;20399;-68
2023/05/29 05:57:17;;;;;;;3.08;1.30;;;11.70;99.90;;;;;;5015871;28;20042;-68
2023/05/29 05:59:43;;;;;;;3.13;1.13;;;11.70;99.90;;;;;;5016507;28;20048;-67
2023/05/29 06:02:08;;;;;;;2.65;1.00;;;11.70;99.90;;;;;;5017295;28;20053;-67
2023/05/29 06:04:34;;;;;;;5.30;1.67;;;11.80;99.90;;;;;;5016777;28;20046;-67
2023/05/29 06:07:00;;;;;;;3.33;1.00;;;11.90;99.90;;;;;;5016346;28;20129;-68
2023/05/29 06:09:26;;;;;;;6.93;1.30;;;11.90;99.90;;;;;;5016320;28;20501;-67
2023/05/29 06:11:51;;;;;;;3.78;1.33;;;12.00;99.90;;;;;;5016264;28;20048;-68
2023/05/29 06:14:17;;;;;;;3.65;1.20;;;12.10;99.90;;;;;;5016588;28;20085;-67
2023/05/29 06:16:43;;;;;;;3.47;0.90;;;12.30;99.90;;;;;;5016308;28;20475;-68
2023/05/29 06:19:09;;;;;;;3.75;1.10;;;12.30;99.90;;;;;;5016234;28;20115;-67
2023/05/29 06:21:35;;;;;;;4.13;1.25;;;12.30;99.90;;;;;;5016127;28;20053;-68
2023/05/29 06:24:01;;;;;;;4.00;1.20;;;12.40;99.90;;;;;;5016069;28;20042;-67
2023/05/29 06:26:26;;;;;;;4.18;1.27;;;12.40;99.90;;;;;;5015985;28;20084;-68
2023/05/29 06:28:52;;;;;;;5.05;1.20;;;12.40;99.90;;;;;;5016504;28;20096;-67
2023/05/29 06:31:18;;;;;;;6.47;1.00;;;12.50;99.90;;;;;;5015974;28;20384;-68
2023/05/29 06:33:45;;;;;;;4.40;1.23;;;12.60;99.90;;;;;;5015788;28;20049;-67
2023/05/29 06:36:10;;;;;;;3.67;1.15;;;12.60;99.90;;;;;;5015886;28;20112;-67
2023/05/29 06:38:36;;;;;;;3.92;1.25;;;12.70;99.90;;;;;;5015837;28;20089;-68
2023/05/29 06:41:02;;;;;;;3.58;0.80;;;12.70;99.90;;;;;;5016161;28;20058;-68
2023/05/29 06:43:28;;;;;;;3.75;1.17;;;12.60;99.90;;;;;;5016362;28;20061;-68
2023/05/29 06:45:54;;;;;;;4.57;1.58;;;12.60;99.90;;;;;;5015622;28;20111;-67
2023/05/29 06:48:21;;;;;;;2.72;0.98;;;12.70;99.90;;;;;;5014313;28;20513;-68
2023/05/29 06:50:50;;;;;;;4.45;1.33;;;12.70;99.90;;;;;;5015526;28;20054;-66
2023/05/29 06:53:16;;;;;;;2.97;0.93;;;12.80;99.90;;;;;;5016079;28;20045;-63
2023/05/29 06:55:41;;;;;;;5.95;1.10;;;12.90;99.90;;;;;;5015994;28;20048;-63
2023/05/29 06:58:07;;;;;;;5.78;1.23;;;13.10;99.90;;;;;;5014507;28;20048;-62
2023/05/29 07:00:33;;;;;;;2.70;1.17;;;13.20;99.90;;;;;;5015440;28;20497;-62
2023/05/29 07:02:58;;;;;;;3.45;1.45;;;13.30;99.90;;;;;;5015928;28;20386;-63
2023/05/29 07:05:26;;;;;;;5.82;1.60;;;13.50;99.90;;;;;;5015299;28;20053;-62
2023/05/29 07:07:51;;;;;;;4.05;1.40;;;13.50;99.90;;;;;;5015184;28;20397;-63
2023/05/29 07:10:17;;;;;;;5.97;1.20;;;13.60;99.90;;;;;;5014274;28;20042;-62
2023/05/29 07:12:43;;;;;;;4.90;1.17;;;13.70;99.90;;;;;;5015441;28;20486;-63
2023/05/29 07:15:09;;;;;;;3.88;1.10;;;13.80;99.90;;;;;;5015071;28;20434;-63
2023/05/29 07:17:35;;;;;;;3.65;1.23;;;13.90;99.90;;;;;;5015012;28;20077;-62
2023/05/29 07:20:00;;;;;;;3.22;1.23;;;14.10;99.90;;;;;;5014516;28;20461;-63
2023/05/29 07:22:26;;;;;;;3.70;1.50;;;14.10;99.90;;;;;;5014989;28;20046;-63
2023/05/29 07:24:52;;;;;;;3.88;1.17;;;14.10;99.90;;;;;;5015175;28;20045;-62
2023/05/29 07:27:17;;;;;;;4.50;1.85;;;14.10;99.90;;;;;;5014764;28;20046;-63
2023/05/29 07:29:43;;;;;;;4.85;1.50;;;14.10;99.90;;;;;;5014267;28;20037;-62
2023/05/29 07:32:09;;;;;;;3.83;1.83;;;14.20;99.90;;;;;;5015248;28;20485;-63
2023/05/29 07:34:35;;;;;;;3.58;1.23;;;14.30;99.90;;;;;;5014691;28;20148;-62
2023/05/29 07:37:03;;;;;;;4.00;1.27;;;14.30;99.90;;;;;;5014598;28;20105;-63
2023/05/29 07:39:30;;;;;;;2.83;1.05;;;14.30;99.90;;;;;;5014218;28;20099;-64
2023/05/29 07:41:56;;;;;;;3.38;1.30;;;14.30;99.90;;;;;;5015113;28;20046;-64
2023/05/29 07:44:22;;;;;;;4.65;1.30;;;14.40;99.90;;;;;;5013522;28;20474;-64
2023/05/29 07:46:48;;;;;;;3.67;1.08;;;14.50;99.90;;;;;;5014213;28;20132;-64
2023/05/29 07:49:14;;;;;;;4.38;1.00;;;14.60;99.90;;;;;;5014543;28;20494;-64
2023/05/29 07:51:40;;;;;;;5.30;2.00;;;14.60;99.90;;;;;;5013409;28;20552;-64
2023/05/29 07:54:06;;;;;;;3.60;0.95;;;14.70;99.90;;;;;;5014271;28;20050;-64
2023/05/29 07:56:33;;;;;;;3.97;1.20;;;14.70;99.90;;;;;;5014064;28;20100;-64
2023/05/29 07:58:59;;;;;;;4.20;1.15;;;14.70;99.90;;;;;;4997484;28;20360;-64
2023/05/29 08:01:26;;;;;;;5.15;1.35;;;14.80;99.90;;;;;;5014349;28;20050;-64
2023/05/29 08:03:52;;;;;;;5.50;1.23;;;14.80;99.90;;;;;;5014217;28;20049;-64
2023/05/29 08:06:18;;;;;;;5.82;1.45;;;14.90;99.90;;;;;;5014119;28;20065;-64
2023/05/29 08:08:44;;;;;;;5.20;1.65;;;15.00;99.90;;;;;;5014074;28;20056;-62
2023/05/29 08:11:10;;;;;;;3.65;1.10;;;15.00;99.90;;;;;;5014566;28;20096;-62
2023/05/29 08:13:36;;;;;;;3.00;1.08;;;15.00;99.90;;;;;;5014205;28;20046;-64
2023/05/29 08:16:02;;;;;;;5.65;1.33;;;15.10;99.90;;;;;;5013764;28;20648;-63
2023/05/29 08:18:32;;;;;;;5.22;1.40;;;15.10;99.90;;;;;;5014515;28;20108;-63
2023/05/29 08:20:58;;;;;;;3.70;1.20;;;15.20;99.90;;;;;;5014396;28;20180;-62
2023/05/29 08:23:24;;;;;;;4.70;1.30;;;15.20;99.90;;;;;;5012978;28;20395;-63
2023/05/29 08:25:50;;;;;;;4.68;1.15;;;15.40;99.90;;;;;;5012948;28;20068;-62
2023/05/29 08:28:16;;;;;;;5.72;1.27;;;15.60;99.90;;;;;;5013513;28;20395;-61
2023/05/29 08:30:42;;;;;;;2.88;1.00;;;15.80;99.90;;;;;;5013551;28;20057;-61
2023/05/29 08:33:08;;;;;;;4.80;1.30;;;16.00;99.90;;;;;;5013822;28;20042;-61
2023/05/29 08:35:34;;;;;;;3.45;1.20;;;16.10;99.90;;;;;;5013809;28;20441;-61
2023/05/29 08:38:00;;;;;;;3.47;1.08;;;16.20;99.90;;;;;;5012806;28;20120;-61
2023/05/29 08:40:25;;;;;;;3.15;1.33;;;16.20;99.90;;;;;;5013421;28;20108;-63
2023/05/29 08:42:58;;;;;;;3.55;1.15;;;16.10;99.90;;;;;;5013241;28;20050;-63
2023/05/29 08:45:24;;;;;;;4.28;1.35;;;16.10;99.90;;;;;;5013262;28;20497;-63
2023/05/29 08:47:54;;;;;;;4.22;1.20;;;16.10;99.90;;;;;;5013509;28;20133;-63
2023/05/29 08:50:21;;;;;;;5.63;1.55;;;16.10;99.90;;;;;;5012474;28;20512;-63
2023/05/29 08:52:47;;;;;;;5.13;1.17;;;16.20;99.90;;;;;;5014010;28;20054;-63
2023/05/29 08:55:13;;;;;;;5.13;1.35;;;16.30;99.90;;;;;;5012216;28;20041;-63
2023/05/29 08:57:40;;;;;;;2.95;1.27;;;16.40;99.90;;;;;;5012273;28;20046;-63
2023/05/29 09:00:18;;;;;;;5.05;1.42;;;16.50;99.90;;;;;;5013450;28;20184;-63
2023/05/29 09:02:44;;;;;;;2.83;1.25;;;16.70;99.90;;;;;;5013084;28;20054;-64
2023/05/29 09:05:10;;;;;;;3.72;1.20;;;17.00;99.90;;;;;;5013478;28;20058;-63
2023/05/29 09:07:40;;;;;;;4.50;1.55;;;17.00;99.90;;;;;;5013897;28;20038;-63
2023/05/29 09:10:07;;;;;;;4.18;1.38;;;17.10;99.90;;;;;;5014860;28;20049;-62
2023/05/29 09:12:34;;;;;;;7.22;1.63;;;17.30;99.90;;;;;;5013697;28;20168;-62
2023/05/29 09:15:01;;;;;;;3.00;0.95;;;17.50;99.90;;;;;;5012648;28;20069;-63
2023/05/29 09:17:32;;;;;;;5.28;1.10;;;17.60;99.90;;;;;;5013532;28;20377;-62
2023/05/29 09:19:58;;;;;;;1.67;0.77;;;17.60;99.90;;;;;;5013968;28;20519;-62
2023/05/29 09:22:23;;;;;;;3.70;1.40;;;17.70;99.90;;;;;;5013320;28;20050;-62
2023/05/29 09:24:50;;;;;;;3.42;1.40;;;17.50;99.90;;;;;;5013992;28;20056;-62
2023/05/29 09:27:17;;;;;;;2.85;0.90;;;17.40;99.90;;;;;;5012954;28;20356;-62
2023/05/29 09:29:45;;;;;;;3.17;1.50;;;17.20;99.90;;;;;;5014184;28;20348;-62
2023/05/29 09:32:14;;;;;;;2.88;0.90;;;17.10;99.90;;;;;;5016933;28;20048;-62
2023/05/29 09:34:41;;;;;;;5.88;1.48;;;17.10;99.90;;;;;;5016865;28;20053;-62
2023/05/29 09:37:09;;;;;;;4.57;1.38;;;17.10;99.90;;;;;;5017022;28;20411;-62
2023/05/29 09:39:53;;;;;;;3.00;1.33;;;17.20;99.90;;;;;;5016828;28;20111;-62
2023/05/29 09:42:19;;;;;;;5.38;1.00;;;17.30;99.90;;;;;;5017717;28;20422;-62
2023/05/29 09:44:51;;;;;;;3.22;1.23;;;17.40;99.90;;;;;;5016893;28;20045;-62
2023/05/29 09:47:17;;;;;;;3.85;1.02;;;17.40;99.90;;;;;;5016803;28;20124;-62
2023/05/29 09:49:45;;;;;;;5.47;1.45;;;17.40;99.90;;;;;;5017225;28;20042;-64
2023/05/29 09:52:15;;;;;;;3.95;1.27;;;17.50;99.90;;;;;;5017038;28;20072;-62
2023/05/29 09:54:48;;;;;;;4.75;1.92;;;17.60;99.90;;;;;;5016647;28;20050;-62
2023/05/29 09:57:16;;;;;;;4.53;1.20;;;17.80;99.90;;;;;;5016667;28;20053;-62
2023/05/29 09:59:44;;;;;;;4.50;1.30;;;18.00;99.90;;;;;;5016541;28;20509;-62
2023/05/29 10:02:13;;;;;;;3.20;1.20;;;18.20;99.90;;;;;;5017339;28;20177;-62
2023/05/29 10:04:40;;;;;;;4.72;1.27;;;18.50;99.90;;;;;;5016468;28;20049;-63
2023/05/29 10:07:16;;;;;;;3.90;1.25;;;18.60;99.90;;;;;;5016400;28;20041;-62
2023/05/29 10:09:43;;;;;;;;;;;18.70;99.90;;;;;;5015649;28;20050;-64
2023/05/29 10:12:11;;;;;;;3.75;1.25;;;18.60;99.90;;;;;;5015890;28;19922;-63
2023/05/29 10:14:38;;;;;;;2.42;1.05;;;18.60;99.90;;;;;;5016178;28;20041;-63
2023/05/29 10:17:08;;;;;;;3.10;1.08;;;18.70;99.90;;;;;;5016099;28;20046;-63
2023/05/29 10:19:36;;;;;;;5.20;1.30;;;18.80;99.90;;;;;;5016139;28;20116;-63
2023/05/29 10:22:04;;;;;;;4.03;1.15;;;18.90;99.90;;;;;;5016004;28;20085;-63
2023/05/29 10:24:31;;;;;;;3.83;1.17;;;18.90;99.90;;;;;;5016551;28;20062;-63
2023/05/29 10:26:58;;;;;;;5.85;1.40;;;18.80;99.90;;;;;;5015919;28;20041;-64
2023/05/29 10:29:30;;;;;;;3.38;1.27;;;18.80;99.90;;;;;;5015957;28;20048;-63
2023/05/29 10:32:12;;;;;;;3.03;1.38;;;18.90;99.90;;;;;;5016504;28;20081;-64
2023/05/29 10:35:03;;;;;;;4.03;1.10;;;18.90;99.90;;;;;;5015887;28;20096;-63
2023/05/29 10:37:50;;;;;;;4.30;1.40;;;19.00;99.90;;;;;;5015887;28;20088;-63
2023/05/29 10:40:23;;;;;;;3.53;1.10;;;19.10;99.90;;;;;;5015837;28;20145;-63
2023/05/29 10:42:54;;;;;;;3.83;1.20;;;19.20;99.90;;;;;;5015295;28;20132;-63
2023/05/29 10:45:29;;;;;;;3.85;1.15;;;19.20;99.90;;;;;;5015996;28;20123;-64
2023/05/29 10:47:56;;;;;;;3.78;1.38;;;19.20;99.90;;;;;;5015546;28;20133;-63
2023/05/29 10:50:41;;;;;;;5.55;1.40;;;19.10;99.90;;;;;;5016198;28;20129;-63
2023/05/29 10:53:18;;;;;;;4.35;1.20;;;19.00;99.90;;;;;;5015436;28;20053;-62
2023/05/29 10:55:45;;;;;;;4.53;1.35;;;19.10;99.90;;;;;;5015665;28;20050;-63
2023/05/29 10:58:18;;;;;;;4.55;1.20;;;19.30;99.90;;;;;;5015443;28;20054;-62
2023/05/29 11:00:46;;;;;;;3.70;1.15;;;19.50;99.90;;;;;;5015688;28;20045;-62
2023/05/29 11:03:27;;;;;;;4.82;1.40;;;19.50;99.90;;;;;;5015496;28;20042;-63
2023/05/29 11:05:57;;;;;;;3.75;1.17;;;19.60;99.90;;;;;;5015308;28;20109;-63
2023/05/29 11:08:46;;;;;;;5.28;1.30;;;19.80;99.90;;;;;;5014186;28;20125;-62
2023/05/29 11:11:13;;;;;;;3.85;1.40;;;19.90;99.90;;;;;;5015674;28;20060;-62
2023/05/29 11:13:44;;;;;;;2.63;1.23;;;20.00;99.90;;;;;;5013974;28;20065;-62
2023/05/29 11:16:34;;;;;;;4.57;1.50;;;20.10;99.90;;;;;;5015195;28;20072;-63
2023/05/29 11:19:05;;;;;;;4.60;1.48;;;20.10;99.90;;;;;;5010380;28;20566;-63
2023/05/29 11:21:35;;;;;;;5.15;1.20;;;20.20;99.90;;;;;;5014942;28;20139;-63
2023/05/29 11:24:03;;;;;;;4.88;1.20;;;20.40;99.90;;;;;;5015694;28;20045;-64
2023/05/29 11:26:29;;;;;;;4.22;1.10;;;20.30;99.90;;;;;;5015290;28;20045;-63
2023/05/29 11:29:10;;;;;;;4.25;1.20;;;20.30;99.90;;;;;;5014806;28;20100;-64
2023/05/29 11:31:38;;;;;;;4.25;1.05;;;20.20;99.90;;;;;;5014748;28;20085;-62
2023/05/29 11:34:05;;;;;;;4.93;1.30;;;20.30;99.90;;;;;;5014637;28;20499;-62
2023/05/29 11:36:34;;;;;;;4.20;1.20;;;20.20;99.90;;;;;;5014661;28;20072;-62
2023/05/29 11:39:03;;;;;;;3.90;1.60;;;20.10;99.90;;;;;;5014587;28;20093;-61
2023/05/29 11:41:29;;;;;;;3.45;1.02;;;20.00;99.90;;;;;;5014343;28;20144;-62
2023/05/29 11:44:01;;;;;;;2.80;0.85;;;20.00;99.90;;;;;;5014521;28;20045;-63
2023/05/29 11:46:28;;;;;;;3.38;1.20;;;20.10;99.90;;;;;;5015083;28;20115;-63
2023/05/29 11:48:53;;;;;;;4.55;1.30;;;20.30;99.90;;;;;;5015061;28;20100;-63
2023/05/29 11:51:20;;;;;;;2.83;0.73;;;20.50;99.90;;;;;;5014326;28;20050;-63
2023/05/29 11:53:47;;;;;;;3.75;1.00;;;20.60;99.90;;;;;;5013587;28;20096;-63
2023/05/29 11:56:13;;;;;;;3.25;1.25;;;20.40;99.90;;;;;;5014348;28;20050;-63
2023/05/29 11:58:39;;;;;;;4.47;1.15;;;20.40;99.90;;;;;;5014368;28;20124;-63
2023/05/29 12:01:07;;;;;;;3.28;1.25;;;20.20;99.90;;;;;;5014290;28;20049;-62
2023/05/29 12:03:43;;;;;;;2.83;1.50;;;20.40;99.90;;;;;;5014488;28;20450;-63
2023/05/29 12:06:11;;;;;;;3.13;1.23;;;20.50;99.90;;;;;;5014308;28;20111;-63
2023/05/29 12:08:38;;;;;;;3.17;1.30;;;20.70;99.90;;;;;;5014218;28;20103;-63
2023/05/29 12:11:04;;;;;;;4.43;1.45;;;20.80;99.90;;;;;;5014145;28;20399;-62
2023/05/29 12:13:30;;;;;;;2.72;1.02;;;21.00;99.90;;;;;;5013829;28;20492;-62
2023/05/29 12:16:06;;;;;;;3.78;1.00;;;21.20;99.90;;;;;;5014077;28;20050;-62
2023/05/29 12:18:33;;;;;;;3.55;1.10;;;21.10;99.90;;;;;;5013390;28;20097;-62
2023/05/29 12:21:03;;;;;;;3.10;1.10;;;20.90;99.90;;;;;;5013864;28;20054;-63
2023/05/29 12:23:29;;;;;;;3.83;1.00;;;20.70;99.90;;;;;;5014069;28;20065;-62
2023/05/29 12:25:56;;;;;;;2.75;1.00;;;20.80;99.90;;;;;;5013923;28;20046;-63
2023/05/29 12:28:22;;;;;;;4.45;1.40;;;20.80;99.90;;;;;;5012672;28;20553;-63
2023/05/29 12:30:52;;;;;;;4.50;1.38;;;20.90;99.90;;;;;;5014661;28;20042;-63
2023/05/29 12:33:31;;;;;;;3.15;1.10;;;20.90;99.90;;;;;;5013634;28;20398;-63
2023/05/29 12:36:06;;;;;;;3.92;1.30;;;20.90;99.90;;;;;;5014185;28;20450;-62
2023/05/29 12:38:32;;;;;;;3.83;1.10;;;20.90;99.90;;;;;;5014212;28;20042;-62
2023/05/29 12:40:58;;;;;;;3.05;1.00;;;21.00;99.90;;;;;;5012454;28;20058;-62
2023/05/29 12:43:23;;;;;;;4.20;1.30;;;21.10;99.90;;;;;;5014251;28;20069;-62
2023/05/29 12:45:57;;;;;;;3.85;1.00;;;21.10;99.90;;;;;;5013983;28;20204;-62
2023/05/29 12:48:27;;;;;;;5.47;1.55;;;21.40;99.90;;;;;;5013308;28;20549;-62
2023/05/29 12:50:53;;;;;;;4.88;1.13;;;21.50;99.90;;;;;;5014254;28;20090;-62
2023/05/29 12:53:18;;;;;;;4.13;1.10;;;21.40;99.90;;;;;;5013641;28;20049;-62